sensor_id;sensor_type;location;lat;lon;timestamp;P1;durP1;ratioP1;P2;durP2;ratioP2
13743;SDS011;6943;52.368;9.966;2023-05-06T00:00:04;14.87;;;13.47;;
13743;SDS011;6943;52.368;9.966;2023-05-06T00:02:30;14.97;;;13.47;;
13743;SDS011;6943;52.368;9.966;2023-05-06T00:04:56;16.33;;;14.73;;
13743;SDS011;6943;52.368;9.966;2023-05-06T00:07:22;15.47;;;14.07;;
13743;SDS011;6943;52.368;9.966;2023-05-06T00:09:48;15.10;;;13.60;;
13743;SDS011;6943;52.368;9.966;2023-05-06T00:12:14;13.87;;;12.47;;
13743;SDS011;6943;52.368;9.966;2023-05-06T00:14:40;15.43;;;13.90;;
13743;SDS011;6943;52.368;9.966;2023-05-06T00:17:06;15.07;;;13.57;;
13743;SDS011;6943;52.368;9.966;2023-05-06T00:19:32;14.63;;;13.13;;
13743;SDS011;6943;52.368;9.966;2023-05-06T00:21:58;14.73;;;13.30;;
13743;SDS011;6943;52.368;9.966;2023-05-06T00:24:24;14.77;;;13.37;;
13743;SDS011;6943;52.368;9.966;2023-05-06T00:26:50;15.13;;;13.73;;
13743;SDS011;6943;52.368;9.966;2023-05-06T00:29:16;15.70;;;14.10;;
13743;SDS011;6943;52.368;9.966;2023-05-06T00:31:41;15.53;;;14.07;;
13743;SDS011;6943;52.368;9.966;2023-05-06T00:34:09;16.67;;;15.07;;
13743;SDS011;6943;52.368;9.966;2023-05-06T00:36:35;16.83;;;15.33;;
13743;SDS011;6943;52.368;9.966;2023-05-06T00:39:01;20.90;;;18.33;;
13743;SDS011;6943;52.368;9.966;2023-05-06T00:41:33;20.30;;;18.13;;
13743;SDS011;6943;52.368;9.966;2023-05-06T00:43:59;21.90;;;19.57;;
13743;SDS011;6943;52.368;9.966;2023-05-06T00:46:25;25.33;;;21.83;;
13743;SDS011;6943;52.368;9.966;2023-05-06T00:48:51;22.53;;;20.13;;
13743;SDS011;6943;52.368;9.966;2023-05-06T00:51:17;22.60;;;20.07;;
13743;SDS011;6943;52.368;9.966;2023-05-06T00:53:43;23.23;;;20.73;;
13743;SDS011;6943;52.368;9.966;2023-05-06T00:56:12;22.27;;;19.93;;
13743;SDS011;6943;52.368;9.966;2023-05-06T00:58:38;21.60;;;19.30;;
13743;SDS011;6943;52.368;9.966;2023-05-06T01:01:04;22.90;;;20.47;;
13743;SDS011;6943;52.368;9.966;2023-05-06T01:03:30;21.97;;;19.67;;
13743;SDS011;6943;52.368;9.966;2023-05-06T01:06:06;22.37;;;19.97;;
13743;SDS011;6943;52.368;9.966;2023-05-06T01:08:34;22.70;;;20.30;;
13743;SDS011;6943;52.368;9.966;2023-05-06T01:11:05;21.90;;;19.60;;
13743;SDS011;6943;52.368;9.966;2023-05-06T01:13:33;23.70;;;21.27;;
13743;SDS011;6943;52.368;9.966;2023-05-06T01:16:03;24.67;;;22.07;;
13743;SDS011;6943;52.368;9.966;2023-05-06T01:18:30;23.93;;;20.90;;
13743;SDS011;6943;52.368;9.966;2023-05-06T01:20:57;24.13;;;21.27;;
13743;SDS011;6943;52.368;9.966;2023-05-06T01:23:23;23.97;;;20.60;;
13743;SDS011;6943;52.368;9.966;2023-05-06T01:25:49;22.70;;;20.13;;
13743;SDS011;6943;52.368;9.966;2023-05-06T01:28:15;22.03;;;19.73;;
13743;SDS011;6943;52.368;9.966;2023-05-06T01:33:23;22.73;;;20.23;;
13743;SDS011;6943;52.368;9.966;2023-05-06T01:36:02;22.90;;;20.40;;
13743;SDS011;6943;52.368;9.966;2023-05-06T01:38:33;22.63;;;20.20;;
13743;SDS011;6943;52.368;9.966;2023-05-06T01:41:00;23.70;;;21.20;;
13743;SDS011;6943;52.368;9.966;2023-05-06T01:43:27;23.73;;;21.20;;
13743;SDS011;6943;52.368;9.966;2023-05-06T01:45:54;22.90;;;20.50;;
13743;SDS011;6943;52.368;9.966;2023-05-06T01:48:21;20.63;;;18.30;;
13743;SDS011;6943;52.368;9.966;2023-05-06T01:50:48;20.07;;;17.97;;
13743;SDS011;6943;52.368;9.966;2023-05-06T01:53:14;18.37;;;16.50;;
13743;SDS011;6943;52.368;9.966;2023-05-06T01:55:40;19.20;;;16.70;;
13743;SDS011;6943;52.368;9.966;2023-05-06T01:58:06;18.43;;;16.63;;
13743;SDS011;6943;52.368;9.966;2023-05-06T02:00:32;17.37;;;15.60;;
13743;SDS011;6943;52.368;9.966;2023-05-06T02:02:58;18.53;;;15.53;;
13743;SDS011;6943;52.368;9.966;2023-05-06T02:05:24;15.93;;;14.40;;
13743;SDS011;6943;52.368;9.966;2023-05-06T02:07:50;16.17;;;14.47;;
13743;SDS011;6943;52.368;9.966;2023-05-06T02:10:19;17.37;;;15.57;;
13743;SDS011;6943;52.368;9.966;2023-05-06T02:12:44;15.80;;;14.20;;
13743;SDS011;6943;52.368;9.966;2023-05-06T02:15:10;16.37;;;14.77;;
13743;SDS011;6943;52.368;9.966;2023-05-06T02:17:37;17.07;;;15.23;;
13743;SDS011;6943;52.368;9.966;2023-05-06T02:20:03;16.87;;;14.90;;
13743;SDS011;6943;52.368;9.966;2023-05-06T02:22:29;17.27;;;15.53;;
13743;SDS011;6943;52.368;9.966;2023-05-06T02:24:55;17.03;;;15.33;;
13743;SDS011;6943;52.368;9.966;2023-05-06T02:27:21;16.63;;;14.90;;
13743;SDS011;6943;52.368;9.966;2023-05-06T02:29:47;17.77;;;15.53;;
13743;SDS011;6943;52.368;9.966;2023-05-06T02:32:13;18.77;;;15.20;;
13743;SDS011;6943;52.368;9.966;2023-05-06T02:34:39;18.80;;;15.63;;
13743;SDS011;6943;52.368;9.966;2023-05-06T02:37:05;16.90;;;15.20;;
13743;SDS011;6943;52.368;9.966;2023-05-06T02:39:31;18.30;;;14.77;;
13743;SDS011;6943;52.368;9.966;2023-05-06T02:41:57;15.93;;;14.30;;
13743;SDS011;6943;52.368;9.966;2023-05-06T02:44:23;17.23;;;15.10;;
13743;SDS011;6943;52.368;9.966;2023-05-06T02:46:49;17.30;;;15.17;;
13743;SDS011;6943;52.368;9.966;2023-05-06T02:49:15;17.53;;;15.17;;
13743;SDS011;6943;52.368;9.966;2023-05-06T02:51:41;16.23;;;14.47;;
13743;SDS011;6943;52.368;9.966;2023-05-06T02:54:07;16.50;;;14.20;;
13743;SDS011;6943;52.368;9.966;2023-05-06T02:56:33;15.00;;;13.33;;
13743;SDS011;6943;52.368;9.966;2023-05-06T02:58:59;14.63;;;13.13;;
13743;SDS011;6943;52.368;9.966;2023-05-06T03:01:25;17.20;;;15.17;;
13743;SDS011;6943;52.368;9.966;2023-05-06T03:03:51;15.23;;;13.63;;
13743;SDS011;6943;52.368;9.966;2023-05-06T03:06:17;15.23;;;13.00;;
13743;SDS011;6943;52.368;9.966;2023-05-06T03:08:43;16.43;;;14.33;;
13743;SDS011;6943;52.368;9.966;2023-05-06T03:11:09;15.60;;;13.80;;
13743;SDS011;6943;52.368;9.966;2023-05-06T03:13:34;15.20;;;13.60;;
13743;SDS011;6943;52.368;9.966;2023-05-06T03:16:01;15.83;;;14.30;;
13743;SDS011;6943;52.368;9.966;2023-05-06T03:18:27;14.87;;;13.37;;
13743;SDS011;6943;52.368;9.966;2023-05-06T03:20:52;16.17;;;13.40;;
13743;SDS011;6943;52.368;9.966;2023-05-06T03:23:18;15.20;;;13.70;;
13743;SDS011;6943;52.368;9.966;2023-05-06T03:25:44;15.23;;;13.67;;
13743;SDS011;6943;52.368;9.966;2023-05-06T03:28:10;14.93;;;13.33;;
13743;SDS011;6943;52.368;9.966;2023-05-06T03:30:36;15.40;;;13.33;;
13743;SDS011;6943;52.368;9.966;2023-05-06T03:33:02;15.27;;;13.87;;
13743;SDS011;6943;52.368;9.966;2023-05-06T03:35:28;14.07;;;12.57;;
13743;SDS011;6943;52.368;9.966;2023-05-06T03:37:54;17.50;;;14.60;;
13743;SDS011;6943;52.368;9.966;2023-05-06T03:40:20;16.47;;;13.57;;
13743;SDS011;6943;52.368;9.966;2023-05-06T03:42:46;14.93;;;12.93;;
13743;SDS011;6943;52.368;9.966;2023-05-06T03:45:12;16.00;;;13.33;;
13743;SDS011;6943;52.368;9.966;2023-05-06T03:47:38;16.33;;;14.57;;
13743;SDS011;6943;52.368;9.966;2023-05-06T03:50:04;14.53;;;13.07;;
13743;SDS011;6943;52.368;9.966;2023-05-06T03:52:30;14.27;;;12.53;;
13743;SDS011;6943;52.368;9.966;2023-05-06T03:54:56;14.07;;;12.53;;
13743;SDS011;6943;52.368;9.966;2023-05-06T03:57:22;14.67;;;13.03;;
13743;SDS011;6943;52.368;9.966;2023-05-06T03:59:48;14.90;;;12.13;;
13743;SDS011;6943;52.368;9.966;2023-05-06T04:02:14;15.20;;;12.47;;
13743;SDS011;6943;52.368;9.966;2023-05-06T04:04:40;14.70;;;12.57;;
13743;SDS011;6943;52.368;9.966;2023-05-06T04:07:06;14.83;;;12.20;;
13743;SDS011;6943;52.368;9.966;2023-05-06T04:09:32;14.03;;;11.63;;
13743;SDS011;6943;52.368;9.966;2023-05-06T04:11:58;14.10;;;12.53;;
13743;SDS011;6943;52.368;9.966;2023-05-06T04:14:26;13.20;;;11.80;;
13743;SDS011;6943;52.368;9.966;2023-05-06T04:16:51;13.33;;;11.97;;
13743;SDS011;6943;52.368;9.966;2023-05-06T04:19:17;12.93;;;11.53;;
13743;SDS011;6943;52.368;9.966;2023-05-06T04:21:43;12.73;;;11.43;;
13743;SDS011;6943;52.368;9.966;2023-05-06T04:24:09;12.37;;;11.07;;
13743;SDS011;6943;52.368;9.966;2023-05-06T04:26:35;13.87;;;11.83;;
13743;SDS011;6943;52.368;9.966;2023-05-06T04:29:01;13.63;;;12.00;;
13743;SDS011;6943;52.368;9.966;2023-05-06T04:31:27;13.73;;;12.33;;
13743;SDS011;6943;52.368;9.966;2023-05-06T04:33:53;13.73;;;12.40;;
13743;SDS011;6943;52.368;9.966;2023-05-06T04:36:19;14.90;;;12.00;;
13743;SDS011;6943;52.368;9.966;2023-05-06T04:38:45;13.10;;;11.67;;
13743;SDS011;6943;52.368;9.966;2023-05-06T04:41:12;13.23;;;11.80;;
13743;SDS011;6943;52.368;9.966;2023-05-06T04:43:38;15.07;;;12.50;;
13743;SDS011;6943;52.368;9.966;2023-05-06T04:46:04;13.53;;;11.63;;
13743;SDS011;6943;52.368;9.966;2023-05-06T04:48:30;14.90;;;13.03;;
13743;SDS011;6943;52.368;9.966;2023-05-06T04:50:55;13.83;;;12.43;;
13743;SDS011;6943;52.368;9.966;2023-05-06T04:53:21;12.70;;;11.40;;
13743;SDS011;6943;52.368;9.966;2023-05-06T04:55:47;14.37;;;12.50;;
13743;SDS011;6943;52.368;9.966;2023-05-06T04:58:13;14.60;;;12.47;;
13743;SDS011;6943;52.368;9.966;2023-05-06T05:00:39;14.60;;;13.03;;
13743;SDS011;6943;52.368;9.966;2023-05-06T05:03:05;14.00;;;12.33;;
13743;SDS011;6943;52.368;9.966;2023-05-06T05:05:31;15.67;;;12.43;;
13743;SDS011;6943;52.368;9.966;2023-05-06T05:07:58;15.77;;;13.30;;
13743;SDS011;6943;52.368;9.966;2023-05-06T05:10:24;14.30;;;12.90;;
13743;SDS011;6943;52.368;9.966;2023-05-06T05:12:50;14.87;;;13.37;;
13743;SDS011;6943;52.368;9.966;2023-05-06T05:15:16;15.07;;;12.90;;
13743;SDS011;6943;52.368;9.966;2023-05-06T05:17:43;13.53;;;12.23;;
13743;SDS011;6943;52.368;9.966;2023-05-06T05:20:09;16.40;;;12.50;;
13743;SDS011;6943;52.368;9.966;2023-05-06T05:22:35;13.13;;;11.93;;
13743;SDS011;6943;52.368;9.966;2023-05-06T05:25:01;14.80;;;11.47;;
13743;SDS011;6943;52.368;9.966;2023-05-06T05:27:27;13.80;;;12.23;;
13743;SDS011;6943;52.368;9.966;2023-05-06T05:29:53;13.50;;;12.10;;
13743;SDS011;6943;52.368;9.966;2023-05-06T05:32:19;12.83;;;11.43;;
13743;SDS011;6943;52.368;9.966;2023-05-06T05:34:45;12.87;;;11.57;;
13743;SDS011;6943;52.368;9.966;2023-05-06T05:37:11;14.00;;;12.60;;
13743;SDS011;6943;52.368;9.966;2023-05-06T05:39:37;13.60;;;12.20;;
13743;SDS011;6943;52.368;9.966;2023-05-06T05:42:03;13.43;;;12.03;;
13743;SDS011;6943;52.368;9.966;2023-05-06T05:44:29;12.43;;;11.03;;
13743;SDS011;6943;52.368;9.966;2023-05-06T05:46:55;12.67;;;11.47;;
13743;SDS011;6943;52.368;9.966;2023-05-06T05:49:21;12.07;;;10.90;;
13743;SDS011;6943;52.368;9.966;2023-05-06T05:51:47;11.87;;;10.77;;
13743;SDS011;6943;52.368;9.966;2023-05-06T05:54:12;13.30;;;12.00;;
13743;SDS011;6943;52.368;9.966;2023-05-06T05:56:38;12.33;;;11.10;;
13743;SDS011;6943;52.368;9.966;2023-05-06T05:59:04;12.20;;;11.10;;
13743;SDS011;6943;52.368;9.966;2023-05-06T06:01:30;12.50;;;11.23;;
13743;SDS011;6943;52.368;9.966;2023-05-06T06:03:56;12.70;;;11.53;;
13743;SDS011;6943;52.368;9.966;2023-05-06T06:06:23;13.07;;;11.67;;
13743;SDS011;6943;52.368;9.966;2023-05-06T06:08:50;14.23;;;12.73;;
13743;SDS011;6943;52.368;9.966;2023-05-06T06:11:16;13.23;;;12.00;;
13743;SDS011;6943;52.368;9.966;2023-05-06T06:13:42;14.43;;;13.13;;
13743;SDS011;6943;52.368;9.966;2023-05-06T06:16:08;13.80;;;12.50;;
13743;SDS011;6943;52.368;9.966;2023-05-06T06:18:33;15.20;;;13.13;;
13743;SDS011;6943;52.368;9.966;2023-05-06T06:20:59;14.23;;;12.87;;
13743;SDS011;6943;52.368;9.966;2023-05-06T06:23:25;12.90;;;11.70;;
13743;SDS011;6943;52.368;9.966;2023-05-06T06:25:51;14.43;;;12.93;;
13743;SDS011;6943;52.368;9.966;2023-05-06T06:28:17;12.67;;;11.37;;
13743;SDS011;6943;52.368;9.966;2023-05-06T06:30:43;13.07;;;11.87;;
13743;SDS011;6943;52.368;9.966;2023-05-06T06:33:09;13.60;;;12.20;;
13743;SDS011;6943;52.368;9.966;2023-05-06T06:35:35;14.63;;;13.23;;
13743;SDS011;6943;52.368;9.966;2023-05-06T06:38:01;13.87;;;12.63;;
13743;SDS011;6943;52.368;9.966;2023-05-06T06:40:27;14.33;;;13.00;;
13743;SDS011;6943;52.368;9.966;2023-05-06T06:42:53;15.23;;;13.67;;
13743;SDS011;6943;52.368;9.966;2023-05-06T06:45:19;14.37;;;13.03;;
13743;SDS011;6943;52.368;9.966;2023-05-06T06:47:45;14.47;;;13.03;;
13743;SDS011;6943;52.368;9.966;2023-05-06T06:50:11;14.07;;;12.67;;
13743;SDS011;6943;52.368;9.966;2023-05-06T06:52:38;15.33;;;13.73;;
13743;SDS011;6943;52.368;9.966;2023-05-06T06:55:04;14.37;;;12.93;;
13743;SDS011;6943;52.368;9.966;2023-05-06T06:57:30;14.90;;;13.30;;
13743;SDS011;6943;52.368;9.966;2023-05-06T06:59:56;14.53;;;13.03;;
13743;SDS011;6943;52.368;9.966;2023-05-06T07:02:22;14.20;;;12.80;;
13743;SDS011;6943;52.368;9.966;2023-05-06T07:04:48;14.33;;;12.93;;
13743;SDS011;6943;52.368;9.966;2023-05-06T07:07:14;15.17;;;13.73;;
13743;SDS011;6943;52.368;9.966;2023-05-06T07:09:40;13.87;;;12.33;;
13743;SDS011;6943;52.368;9.966;2023-05-06T07:12:06;14.13;;;12.77;;
13743;SDS011;6943;52.368;9.966;2023-05-06T07:14:32;14.67;;;13.17;;
13743;SDS011;6943;52.368;9.966;2023-05-06T07:16:58;13.00;;;11.80;;
13743;SDS011;6943;52.368;9.966;2023-05-06T07:19:27;14.10;;;12.80;;
13743;SDS011;6943;52.368;9.966;2023-05-06T07:21:53;12.53;;;11.33;;
13743;SDS011;6943;52.368;9.966;2023-05-06T07:24:19;11.57;;;10.67;;
13743;SDS011;6943;52.368;9.966;2023-05-06T07:26:46;11.32;;;10.30;;
13743;SDS011;6943;52.368;9.966;2023-05-06T07:29:12;11.57;;;10.57;;
13743;SDS011;6943;52.368;9.966;2023-05-06T07:31:38;13.45;;;12.15;;
13743;SDS011;6943;52.368;9.966;2023-05-06T07:34:03;12.32;;;11.23;;
13743;SDS011;6943;52.368;9.966;2023-05-06T07:36:30;12.82;;;11.70;;
13743;SDS011;6943;52.368;9.966;2023-05-06T07:39:02;12.32;;;11.13;;
13743;SDS011;6943;52.368;9.966;2023-05-06T07:41:28;12.65;;;11.35;;
13743;SDS011;6943;52.368;9.966;2023-05-06T07:43:54;13.13;;;11.73;;
13743;SDS011;6943;52.368;9.966;2023-05-06T07:46:20;12.77;;;11.57;;
13743;SDS011;6943;52.368;9.966;2023-05-06T07:48:46;13.47;;;12.13;;
13743;SDS011;6943;52.368;9.966;2023-05-06T07:51:12;12.33;;;11.13;;
13743;SDS011;6943;52.368;9.966;2023-05-06T07:53:38;11.93;;;10.90;;
13743;SDS011;6943;52.368;9.966;2023-05-06T07:56:04;10.23;;;9.32;;
13743;SDS011;6943;52.368;9.966;2023-05-06T07:58:30;9.88;;;8.98;;
13743;SDS011;6943;52.368;9.966;2023-05-06T08:00:56;9.82;;;8.93;;
13743;SDS011;6943;52.368;9.966;2023-05-06T08:03:22;9.73;;;8.73;;
13743;SDS011;6943;52.368;9.966;2023-05-06T08:05:49;8.32;;;7.53;;
13743;SDS011;6943;52.368;9.966;2023-05-06T08:08:15;8.80;;;8.00;;
13743;SDS011;6943;52.368;9.966;2023-05-06T08:10:42;8.55;;;7.85;;
13743;SDS011;6943;52.368;9.966;2023-05-06T08:13:08;8.35;;;7.57;;
13743;SDS011;6943;52.368;9.966;2023-05-06T08:15:34;8.57;;;7.85;;
13743;SDS011;6943;52.368;9.966;2023-05-06T08:18:00;7.97;;;7.22;;
13743;SDS011;6943;52.368;9.966;2023-05-06T08:20:26;8.43;;;7.60;;
13743;SDS011;6943;52.368;9.966;2023-05-06T08:22:52;9.63;;;8.75;;
13743;SDS011;6943;52.368;9.966;2023-05-06T08:25:18;9.25;;;8.45;;
13743;SDS011;6943;52.368;9.966;2023-05-06T08:27:44;8.65;;;7.85;;
13743;SDS011;6943;52.368;9.966;2023-05-06T08:30:10;8.15;;;7.35;;
13743;SDS011;6943;52.368;9.966;2023-05-06T08:32:37;9.65;;;8.75;;
13743;SDS011;6943;52.368;9.966;2023-05-06T08:35:03;9.48;;;8.57;;
13743;SDS011;6943;52.368;9.966;2023-05-06T08:37:29;9.40;;;8.45;;
13743;SDS011;6943;52.368;9.966;2023-05-06T08:39:55;9.30;;;8.50;;
13743;SDS011;6943;52.368;9.966;2023-05-06T08:42:22;10.48;;;8.55;;
13743;SDS011;6943;52.368;9.966;2023-05-06T08:44:50;10.25;;;7.80;;
13743;SDS011;6943;52.368;9.966;2023-05-06T08:47:16;8.20;;;7.40;;
13743;SDS011;6943;52.368;9.966;2023-05-06T08:49:42;8.40;;;7.60;;
13743;SDS011;6943;52.368;9.966;2023-05-06T08:52:08;8.25;;;7.35;;
13743;SDS011;6943;52.368;9.966;2023-05-06T08:54:34;8.35;;;7.50;;
13743;SDS011;6943;52.368;9.966;2023-05-06T08:57:02;9.00;;;8.15;;
13743;SDS011;6943;52.368;9.966;2023-05-06T08:59:30;8.57;;;7.68;;
13743;SDS011;6943;52.368;9.966;2023-05-06T09:01:57;9.43;;;8.50;;
13743;SDS011;6943;52.368;9.966;2023-05-06T09:04:24;9.80;;;8.77;;
13743;SDS011;6943;52.368;9.966;2023-05-06T09:06:50;9.40;;;8.48;;
13743;SDS011;6943;52.368;9.966;2023-05-06T09:09:16;9.60;;;8.05;;
13743;SDS011;6943;52.368;9.966;2023-05-06T09:11:42;8.88;;;8.07;;
13743;SDS011;6943;52.368;9.966;2023-05-06T09:16:37;9.30;;;8.10;;
13743;SDS011;6943;52.368;9.966;2023-05-06T09:19:03;8.70;;;8.00;;
13743;SDS011;6943;52.368;9.966;2023-05-06T09:21:33;8.70;;;7.88;;
13743;SDS011;6943;52.368;9.966;2023-05-06T09:24:00;8.65;;;7.50;;
13743;SDS011;6943;52.368;9.966;2023-05-06T09:26:27;8.95;;;8.02;;
13743;SDS011;6943;52.368;9.966;2023-05-06T09:28:53;10.55;;;8.02;;
13743;SDS011;6943;52.368;9.966;2023-05-06T09:31:19;8.13;;;7.13;;
13743;SDS011;6943;52.368;9.966;2023-05-06T09:33:45;8.75;;;6.18;;
13743;SDS011;6943;52.368;9.966;2023-05-06T09:36:11;7.45;;;6.68;;
13743;SDS011;6943;52.368;9.966;2023-05-06T09:38:40;7.25;;;6.55;;
13743;SDS011;6943;52.368;9.966;2023-05-06T09:41:06;8.38;;;7.15;;
13743;SDS011;6943;52.368;9.966;2023-05-06T09:43:33;7.93;;;6.50;;
13743;SDS011;6943;52.368;9.966;2023-05-06T09:46:01;7.00;;;6.10;;
13743;SDS011;6943;52.368;9.966;2023-05-06T09:48:28;6.70;;;5.47;;
13743;SDS011;6943;52.368;9.966;2023-05-06T09:50:54;6.83;;;6.10;;
13743;SDS011;6943;52.368;9.966;2023-05-06T09:53:20;6.90;;;5.67;;
13743;SDS011;6943;52.368;9.966;2023-05-06T09:55:47;8.03;;;5.77;;
13743;SDS011;6943;52.368;9.966;2023-05-06T09:58:13;6.60;;;5.80;;
13743;SDS011;6943;52.368;9.966;2023-05-06T10:00:41;8.80;;;6.03;;
13743;SDS011;6943;52.368;9.966;2023-05-06T10:03:08;5.97;;;5.37;;
13743;SDS011;6943;52.368;9.966;2023-05-06T10:05:35;6.10;;;5.17;;
13743;SDS011;6943;52.368;9.966;2023-05-06T10:08:01;6.83;;;5.67;;
13743;SDS011;6943;52.368;9.966;2023-05-06T10:10:31;6.87;;;5.70;;
13743;SDS011;6943;52.368;9.966;2023-05-06T10:12:58;7.33;;;5.20;;
13743;SDS011;6943;52.368;9.966;2023-05-06T10:15:26;7.13;;;5.43;;
13743;SDS011;6943;52.368;9.966;2023-05-06T10:17:52;8.03;;;6.00;;
13743;SDS011;6943;52.368;9.966;2023-05-06T10:20:19;7.77;;;6.50;;
13743;SDS011;6943;52.368;9.966;2023-05-06T10:25:16;6.93;;;6.27;;
13743;SDS011;6943;52.368;9.966;2023-05-06T10:27:44;10.30;;;9.30;;
13743;SDS011;6943;52.368;9.966;2023-05-06T10:30:11;10.50;;;7.90;;
13743;SDS011;6943;52.368;9.966;2023-05-06T10:32:40;8.97;;;8.07;;
13743;SDS011;6943;52.368;9.966;2023-05-06T10:35:14;9.23;;;7.47;;
13743;SDS011;6943;52.368;9.966;2023-05-06T10:37:41;9.63;;;8.03;;
13743;SDS011;6943;52.368;9.966;2023-05-06T10:40:08;9.13;;;7.27;;
13743;SDS011;6943;52.368;9.966;2023-05-06T10:42:34;8.73;;;7.63;;
13743;SDS011;6943;52.368;9.966;2023-05-06T10:45:04;10.53;;;7.10;;
13743;SDS011;6943;52.368;9.966;2023-05-06T10:50:16;11.63;;;8.40;;
13743;SDS011;6943;52.368;9.966;2023-05-06T10:52:44;9.10;;;7.43;;
13743;SDS011;6943;52.368;9.966;2023-05-06T10:55:24;10.03;;;7.87;;
13743;SDS011;6943;52.368;9.966;2023-05-06T10:57:52;7.83;;;6.30;;
13743;SDS011;6943;52.368;9.966;2023-05-06T11:00:19;8.77;;;7.60;;
13743;SDS011;6943;52.368;9.966;2023-05-06T11:02:49;8.17;;;7.33;;
13743;SDS011;6943;52.368;9.966;2023-05-06T11:05:15;9.10;;;7.77;;
13743;SDS011;6943;52.368;9.966;2023-05-06T11:07:41;11.47;;;8.53;;
13743;SDS011;6943;52.368;9.966;2023-05-06T11:10:08;8.93;;;8.03;;
13743;SDS011;6943;52.368;9.966;2023-05-06T11:12:45;9.07;;;8.17;;
13743;SDS011;6943;52.368;9.966;2023-05-06T11:17:44;8.73;;;6.87;;
13743;SDS011;6943;52.368;9.966;2023-05-06T11:20:17;7.87;;;6.90;;
13743;SDS011;6943;52.368;9.966;2023-05-06T11:22:43;9.40;;;8.40;;
13743;SDS011;6943;52.368;9.966;2023-05-06T11:25:09;10.67;;;8.63;;
13743;SDS011;6943;52.368;9.966;2023-05-06T11:27:36;10.37;;;7.50;;
13743;SDS011;6943;52.368;9.966;2023-05-06T11:30:02;8.50;;;7.17;;
13743;SDS011;6943;52.368;9.966;2023-05-06T11:32:28;9.57;;;8.30;;
13743;SDS011;6943;52.368;9.966;2023-05-06T11:34:55;8.87;;;7.57;;
13743;SDS011;6943;52.368;9.966;2023-05-06T11:37:24;9.97;;;7.73;;
13743;SDS011;6943;52.368;9.966;2023-05-06T11:39:50;8.57;;;7.03;;
13743;SDS011;6943;52.368;9.966;2023-05-06T11:42:23;8.77;;;7.40;;
13743;SDS011;6943;52.368;9.966;2023-05-06T11:44:49;9.17;;;7.23;;
13743;SDS011;6943;52.368;9.966;2023-05-06T11:47:19;8.43;;;6.53;;
13743;SDS011;6943;52.368;9.966;2023-05-06T11:49:45;6.73;;;6.00;;
13743;SDS011;6943;52.368;9.966;2023-05-06T11:52:12;6.37;;;5.77;;
13743;SDS011;6943;52.368;9.966;2023-05-06T11:54:39;5.83;;;5.23;;
13743;SDS011;6943;52.368;9.966;2023-05-06T11:57:05;7.97;;;5.73;;
13743;SDS011;6943;52.368;9.966;2023-05-06T11:59:35;6.53;;;5.83;;
13743;SDS011;6943;52.368;9.966;2023-05-06T12:02:02;6.77;;;5.03;;
13743;SDS011;6943;52.368;9.966;2023-05-06T12:04:38;6.70;;;5.40;;
13743;SDS011;6943;52.368;9.966;2023-05-06T12:07:05;6.80;;;4.90;;
13743;SDS011;6943;52.368;9.966;2023-05-06T12:09:31;6.33;;;4.87;;
13743;SDS011;6943;52.368;9.966;2023-05-06T12:11:58;12.07;;;5.40;;
13743;SDS011;6943;52.368;9.966;2023-05-06T12:14:24;7.63;;;5.10;;
13743;SDS011;6943;52.368;9.966;2023-05-06T12:16:51;7.17;;;5.27;;
13743;SDS011;6943;52.368;9.966;2023-05-06T12:19:17;7.30;;;4.77;;
13743;SDS011;6943;52.368;9.966;2023-05-06T12:21:43;6.40;;;5.27;;
13743;SDS011;6943;52.368;9.966;2023-05-06T12:24:10;6.90;;;5.80;;
13743;SDS011;6943;52.368;9.966;2023-05-06T12:26:46;6.97;;;5.70;;
13743;SDS011;6943;52.368;9.966;2023-05-06T12:29:14;6.83;;;5.53;;
13743;SDS011;6943;52.368;9.966;2023-05-06T12:31:41;7.93;;;5.67;;
13743;SDS011;6943;52.368;9.966;2023-05-06T12:34:07;9.07;;;5.17;;
13743;SDS011;6943;52.368;9.966;2023-05-06T12:36:38;6.47;;;4.67;;
13743;SDS011;6943;52.368;9.966;2023-05-06T12:39:04;5.50;;;4.83;;
13743;SDS011;6943;52.368;9.966;2023-05-06T12:41:34;6.83;;;5.10;;
13743;SDS011;6943;52.368;9.966;2023-05-06T12:44:01;7.73;;;5.10;;
13743;SDS011;6943;52.368;9.966;2023-05-06T12:46:27;4.93;;;4.43;;
13743;SDS011;6943;52.368;9.966;2023-05-06T12:48:56;5.50;;;5.00;;
13743;SDS011;6943;52.368;9.966;2023-05-06T12:51:22;6.97;;;4.73;;
13743;SDS011;6943;52.368;9.966;2023-05-06T12:53:49;5.10;;;4.60;;
13743;SDS011;6943;52.368;9.966;2023-05-06T12:56:15;6.50;;;5.33;;
13743;SDS011;6943;52.368;9.966;2023-05-06T12:58:41;6.63;;;4.97;;
13743;SDS011;6943;52.368;9.966;2023-05-06T13:01:07;5.50;;;4.77;;
13743;SDS011;6943;52.368;9.966;2023-05-06T13:03:33;6.20;;;4.60;;
13743;SDS011;6943;52.368;9.966;2023-05-06T13:06:00;5.13;;;3.93;;
13743;SDS011;6943;52.368;9.966;2023-05-06T13:08:25;5.93;;;4.03;;
13743;SDS011;6943;52.368;9.966;2023-05-06T13:10:51;4.67;;;3.50;;
13743;SDS011;6943;52.368;9.966;2023-05-06T13:13:17;4.73;;;3.73;;
13743;SDS011;6943;52.368;9.966;2023-05-06T13:15:43;6.10;;;4.07;;
13743;SDS011;6943;52.368;9.966;2023-05-06T13:18:09;5.10;;;3.43;;
13743;SDS011;6943;52.368;9.966;2023-05-06T13:20:35;4.23;;;3.47;;
13743;SDS011;6943;52.368;9.966;2023-05-06T13:23:01;5.40;;;4.47;;
13743;SDS011;6943;52.368;9.966;2023-05-06T13:25:27;5.33;;;4.27;;
13743;SDS011;6943;52.368;9.966;2023-05-06T13:27:53;4.80;;;4.30;;
13743;SDS011;6943;52.368;9.966;2023-05-06T13:30:19;5.90;;;4.10;;
13743;SDS011;6943;52.368;9.966;2023-05-06T13:32:45;5.43;;;4.60;;
13743;SDS011;6943;52.368;9.966;2023-05-06T13:35:11;5.17;;;4.67;;
13743;SDS011;6943;52.368;9.966;2023-05-06T13:37:37;5.00;;;4.50;;
13743;SDS011;6943;52.368;9.966;2023-05-06T13:40:03;5.53;;;4.53;;
13743;SDS011;6943;52.368;9.966;2023-05-06T13:42:30;5.03;;;4.53;;
13743;SDS011;6943;52.368;9.966;2023-05-06T13:44:56;6.20;;;4.90;;
13743;SDS011;6943;52.368;9.966;2023-05-06T13:47:22;7.80;;;4.10;;
13743;SDS011;6943;52.368;9.966;2023-05-06T13:49:49;5.13;;;4.47;;
13743;SDS011;6943;52.368;9.966;2023-05-06T13:52:28;4.57;;;3.93;;
13743;SDS011;6943;52.368;9.966;2023-05-06T13:54:54;7.17;;;3.73;;
13743;SDS011;6943;52.368;9.966;2023-05-06T13:57:20;8.00;;;4.53;;
13743;SDS011;6943;52.368;9.966;2023-05-06T13:59:48;6.73;;;4.30;;
13743;SDS011;6943;52.368;9.966;2023-05-06T14:02:14;3.87;;;3.47;;
13743;SDS011;6943;52.368;9.966;2023-05-06T14:04:40;3.77;;;3.37;;
13743;SDS011;6943;52.368;9.966;2023-05-06T14:07:06;4.83;;;3.93;;
13743;SDS011;6943;52.368;9.966;2023-05-06T14:09:32;5.50;;;3.53;;
13743;SDS011;6943;52.368;9.966;2023-05-06T14:11:58;3.10;;;2.87;;
13743;SDS011;6943;52.368;9.966;2023-05-06T14:14:24;3.70;;;3.40;;
13743;SDS011;6943;52.368;9.966;2023-05-06T14:16:51;4.20;;;3.50;;
13743;SDS011;6943;52.368;9.966;2023-05-06T14:19:18;5.33;;;3.60;;
13743;SDS011;6943;52.368;9.966;2023-05-06T14:21:44;4.83;;;3.87;;
13743;SDS011;6943;52.368;9.966;2023-05-06T14:24:10;4.83;;;3.20;;
13743;SDS011;6943;52.368;9.966;2023-05-06T14:26:36;5.80;;;3.20;;
13743;SDS011;6943;52.368;9.966;2023-05-06T14:29:02;5.17;;;3.53;;
13743;SDS011;6943;52.368;9.966;2023-05-06T14:31:28;3.60;;;3.10;;
13743;SDS011;6943;52.368;9.966;2023-05-06T14:33:54;4.23;;;3.10;;
13743;SDS011;6943;52.368;9.966;2023-05-06T14:36:20;4.77;;;3.20;;
13743;SDS011;6943;52.368;9.966;2023-05-06T14:38:46;3.23;;;2.93;;
13743;SDS011;6943;52.368;9.966;2023-05-06T14:41:12;6.17;;;3.37;;
13743;SDS011;6943;52.368;9.966;2023-05-06T14:43:39;3.70;;;3.10;;
13743;SDS011;6943;52.368;9.966;2023-05-06T14:46:05;4.40;;;3.30;;
13743;SDS011;6943;52.368;9.966;2023-05-06T14:48:31;3.87;;;3.50;;
13743;SDS011;6943;52.368;9.966;2023-05-06T14:50:58;3.97;;;3.30;;
13743;SDS011;6943;52.368;9.966;2023-05-06T14:53:24;4.40;;;3.50;;